createdAt,value
2022-11-21T00:01:59.358Z,100.00
2022-11-21T00:04:27.691Z,100.00
2022-11-21T00:06:55.453Z,100.00
2022-11-21T00:09:23.400Z,100.00
2022-11-21T00:11:52.709Z,100.00
2022-11-21T00:14:20.584Z,100.00
2022-11-21T00:16:49.500Z,100.00
2022-11-21T00:19:19.944Z,100.00
2022-11-21T00:21:47.402Z,100.00
2022-11-21T00:24:15.314Z,100.00
2022-11-21T00:26:42.799Z,100.00
2022-11-21T00:29:11.000Z,100.00
2022-11-21T00:31:38.532Z,100.00
2022-11-21T00:34:06.404Z,100.00
2022-11-21T00:36:33.892Z,100.00
2022-11-21T00:39:01.699Z,100.00
2022-11-21T00:41:29.211Z,100.00
2022-11-21T00:43:57.060Z,100.00
2022-11-21T00:46:24.526Z,100.00
2022-11-21T00:48:52.313Z,100.00
2022-11-21T00:51:19.824Z,100.00
2022-11-21T00:53:47.793Z,100.00
2022-11-21T00:56:15.252Z,100.00
2022-11-21T00:58:43.092Z,100.00
2022-11-21T01:01:15.287Z,100.00
2022-11-21T01:03:43.491Z,100.00
2022-11-21T01:06:14.398Z,100.00
2022-11-21T01:08:45.180Z,100.00
2022-11-21T01:11:16.754Z,100.00
2022-11-21T01:13:45.788Z,100.00
2022-11-21T01:16:18.852Z,100.00
2022-11-21T01:18:47.409Z,100.00
2022-11-21T01:21:17.733Z,100.00
2022-11-21T01:23:46.110Z,100.00
2022-11-21T01:26:23.429Z,100.00
2022-11-21T01:28:51.926Z,100.00
2022-11-21T01:31:29.249Z,100.00
2022-11-21T01:34:00.371Z,100.00
2022-11-21T01:36:31.419Z,100.00
2022-11-21T01:39:02.593Z,100.00
2022-11-21T01:41:42.935Z,100.00
2022-11-21T01:44:20.283Z,100.00
2022-11-21T01:46:49.639Z,100.00
2022-11-21T01:49:29.491Z,100.00
2022-11-21T01:52:25.566Z,100.00
2022-11-21T01:55:09.986Z,100.00
2022-11-21T01:57:48.523Z,100.00
2022-11-21T02:00:27.464Z,100.00
2022-11-21T02:03:02.251Z,100.00
2022-11-21T02:05:35.382Z,100.00
2022-11-21T02:08:09.981Z,100.00
2022-11-21T02:10:42.513Z,100.00
2022-11-21T02:13:10.167Z,100.00
2022-11-21T02:15:38.106Z,100.00
2022-11-21T02:18:09.716Z,100.00
2022-11-21T02:20:40.248Z,100.00
2022-11-21T02:23:33.968Z,100.00
2022-11-21T02:26:01.885Z,100.00
2022-11-21T02:28:29.672Z,100.00
2022-11-21T02:30:57.462Z,100.00
2022-11-21T02:33:24.911Z,100.00
2022-11-21T02:36:01.041Z,100.00
2022-11-21T02:38:36.819Z,100.00
2022-11-21T02:41:14.912Z,100.00
2022-11-21T02:43:54.844Z,100.00
2022-11-21T02:46:22.735Z,100.00
2022-11-21T02:48:50.207Z,100.00
2022-11-21T02:51:18.034Z,100.00
2022-11-21T02:53:46.330Z,100.00
2022-11-21T02:56:14.215Z,100.00
2022-11-21T02:58:42.079Z,100.00
2022-11-21T03:01:09.954Z,100.00
2022-11-21T03:03:37.502Z,100.00
2022-11-21T03:06:05.396Z,100.00
2022-11-21T03:08:32.953Z,100.00
2022-11-21T03:11:00.727Z,100.00
2022-11-21T03:13:28.201Z,100.00
2022-11-21T03:15:56.342Z,100.00
2022-11-21T03:18:23.841Z,100.00
2022-11-21T03:20:51.678Z,100.00
2022-11-21T03:23:19.245Z,100.00
2022-11-21T03:25:47.045Z,100.00
2022-11-21T03:28:14.601Z,100.00
2022-11-21T03:30:42.578Z,100.00
2022-11-21T03:33:10.043Z,100.00
2022-11-21T03:35:37.776Z,100.00
2022-11-21T03:38:05.306Z,100.00
2022-11-21T03:40:33.395Z,100.00
2022-11-21T03:43:06.305Z,100.00
2022-11-21T03:45:34.340Z,100.00
2022-11-21T03:48:01.912Z,100.00
2022-11-21T03:50:29.653Z,100.00
2022-11-21T03:52:57.077Z,100.00
2022-11-21T03:55:24.898Z,100.00
2022-11-21T03:57:52.389Z,100.00
2022-11-21T04:00:20.273Z,100.00
2022-11-21T04:03:06.444Z,100.00
2022-11-21T04:05:34.279Z,100.00
2022-11-21T04:08:01.756Z,100.00
2022-11-21T04:10:29.538Z,100.00
2022-11-21T04:12:57.063Z,100.00
2022-11-21T04:15:24.824Z,100.00
2022-11-21T04:17:53.126Z,100.00
2022-11-21T04:20:20.942Z,100.00
2022-11-21T04:22:49.626Z,100.00
2022-11-21T04:25:17.567Z,100.00
2022-11-21T04:27:45.060Z,100.00
2022-11-21T04:30:16.140Z,100.00
2022-11-21T04:32:44.341Z,100.00
2022-11-21T04:35:12.063Z,100.00
2022-11-21T04:37:39.842Z,100.00
2022-11-21T04:40:08.377Z,100.00
2022-11-21T04:42:35.848Z,100.00
2022-11-21T04:45:04.429Z,100.00
2022-11-21T04:47:31.886Z,100.00
2022-11-21T04:49:59.700Z,100.00
2022-11-21T04:52:27.253Z,100.00
2022-11-21T04:54:55.121Z,100.00
2022-11-21T04:57:23.345Z,100.00
2022-11-21T04:59:51.166Z,100.00
2022-11-21T05:02:18.730Z,100.00
2022-11-21T05:04:46.630Z,100.00
2022-11-21T05:07:14.931Z,100.00
2022-11-21T05:09:42.791Z,100.00
2022-11-21T05:12:29.914Z,100.00
2022-11-21T05:14:57.744Z,100.00
2022-11-21T05:17:25.218Z,100.00
2022-11-21T05:19:53.049Z,100.00
2022-11-21T05:22:20.711Z,100.00
2022-11-21T05:24:48.516Z,100.00
2022-11-21T05:27:15.988Z,100.00
2022-11-21T05:29:43.947Z,100.00
2022-11-21T05:32:11.510Z,100.00
2022-11-21T05:34:39.357Z,100.00
2022-11-21T05:37:07.031Z,100.00
2022-11-21T05:39:34.945Z,100.00
2022-11-21T05:42:03.313Z,100.00
2022-11-21T05:44:31.538Z,100.00
2022-11-21T05:46:59.331Z,100.00
2022-11-21T05:49:27.160Z,100.00
2022-11-21T05:51:55.070Z,100.00
2022-11-21T05:54:22.934Z,100.00
2022-11-21T05:56:50.478Z,100.00
2022-11-21T05:59:18.278Z,100.00
2022-11-21T06:02:04.470Z,100.00
2022-11-21T06:04:32.421Z,100.00
2022-11-21T06:07:00.039Z,100.00
2022-11-21T06:09:28.094Z,100.00
2022-11-21T06:11:55.589Z,100.00
2022-11-21T06:14:23.473Z,100.00
2022-11-21T06:16:51.608Z,100.00
2022-11-21T06:19:19.483Z,100.00
2022-11-21T06:21:46.969Z,100.00
2022-11-21T06:24:19.393Z,100.00
2022-11-21T06:26:49.315Z,100.00
2022-11-21T06:29:17.114Z,100.00
2022-11-21T06:31:44.593Z,100.00
2022-11-21T06:34:12.524Z,100.00
2022-11-21T06:36:39.992Z,100.00
2022-11-21T06:39:07.924Z,100.00
2022-11-21T06:41:35.648Z,100.00
2022-11-21T06:44:03.482Z,100.00
2022-11-21T06:46:30.980Z,100.00
2022-11-21T06:48:58.807Z,100.00
2022-11-21T06:51:26.690Z,100.00
2022-11-21T06:53:57.350Z,100.00
2022-11-21T06:56:26.627Z,100.00
2022-11-21T06:58:54.563Z,100.00
2022-11-21T07:01:23.289Z,100.00
2022-11-21T07:03:51.835Z,100.00
2022-11-21T07:06:19.504Z,100.00
2022-11-21T07:08:52.450Z,100.00
2022-11-21T07:11:27.636Z,100.00
2022-11-21T07:13:56.515Z,100.00
2022-11-21T07:16:26.322Z,100.00
2022-11-21T07:18:54.418Z,100.00
2022-11-21T07:21:21.989Z,100.00
2022-11-21T07:23:49.833Z,100.00
2022-11-21T07:26:17.833Z,100.00
2022-11-21T07:28:45.710Z,100.00
2022-11-21T07:31:14.370Z,100.00
2022-11-21T07:33:46.945Z,100.00
2022-11-21T07:36:14.786Z,100.00
2022-11-21T07:38:42.684Z,100.00
2022-11-21T07:41:10.747Z,100.00
2022-11-21T07:43:38.713Z,100.00
2022-11-21T07:46:06.269Z,100.00
2022-11-21T07:48:33.584Z,100.00
2022-11-21T07:51:05.211Z,100.00
2022-11-21T07:53:32.773Z,100.00
2022-11-21T07:56:00.884Z,100.00
2022-11-21T07:58:28.468Z,100.00
2022-11-21T08:00:56.454Z,100.00
2022-11-21T08:03:25.365Z,100.00
2022-11-21T08:05:53.228Z,100.00
2022-11-21T08:08:20.678Z,100.00
2022-11-21T08:10:48.607Z,100.00
2022-11-21T08:13:16.123Z,100.00
2022-11-21T08:15:44.108Z,100.00
2022-11-21T08:18:19.168Z,100.00
2022-11-21T08:20:47.708Z,100.00
2022-11-21T08:23:16.019Z,100.00
2022-11-21T08:25:44.002Z,100.00
2022-11-21T08:28:12.563Z,100.00
2022-11-21T08:30:41.014Z,100.00
2022-11-21T08:33:08.808Z,100.00
2022-11-21T08:35:40.245Z,100.00
2022-11-21T08:38:08.259Z,100.00
2022-11-21T08:40:36.539Z,100.00
2022-11-21T08:43:09.626Z,100.00
2022-11-21T08:45:39.783Z,100.00
2022-11-21T08:48:13.042Z,100.00
2022-11-21T08:50:41.052Z,100.00
2022-11-21T08:53:08.406Z,100.00
2022-11-21T08:55:36.203Z,100.00
2022-11-21T08:58:03.784Z,100.00
2022-11-21T09:00:31.593Z,100.00
2022-11-21T09:03:03.877Z,100.00
2022-11-21T09:05:33.287Z,100.00
2022-11-21T09:08:00.705Z,100.00
2022-11-21T09:10:29.515Z,100.00
2022-11-21T09:13:00.523Z,100.00
2022-11-21T09:15:48.055Z,100.00
2022-11-21T09:18:15.612Z,100.00
2022-11-21T09:20:47.526Z,100.00
2022-11-21T09:23:17.205Z,100.00
2022-11-21T09:25:45.523Z,100.00
2022-11-21T09:28:14.503Z,100.00
2022-11-21T09:30:43.775Z,100.00
2022-11-21T09:33:14.282Z,100.00
2022-11-21T09:35:42.427Z,100.00
2022-11-21T09:38:10.198Z,100.00
2022-11-21T09:40:47.156Z,100.00
2022-11-21T09:43:29.428Z,100.00
2022-11-21T09:46:17.468Z,100.00
2022-11-21T09:48:58.456Z,100.00
2022-11-21T09:51:31.043Z,100.00
2022-11-21T09:54:03.839Z,100.00
2022-11-21T09:56:38.772Z,100.00
2022-11-21T09:59:32.744Z,100.00
2022-11-21T10:02:00.921Z,100.00
2022-11-21T10:04:29.912Z,100.00
2022-11-21T10:07:17.037Z,100.00
2022-11-21T10:10:22.751Z,100.00
2022-11-21T10:13:36.858Z,100.00
2022-11-21T10:16:26.380Z,100.00
2022-11-21T10:19:12.952Z,100.00
2022-11-21T10:22:05.967Z,100.00
2022-11-21T10:24:33.682Z,100.00
2022-11-21T10:27:16.102Z,99.29
2022-11-21T10:30:16.810Z,98.71
2022-11-21T10:33:20.326Z,98.30
2022-11-21T10:35:57.691Z,98.82
2022-11-21T10:38:30.968Z,97.95
2022-11-21T10:41:24.089Z,97.52
2022-11-21T10:44:43.922Z,97.09
2022-11-21T10:47:29.698Z,96.60
2022-11-21T10:50:40.414Z,97.60
2022-11-21T10:53:37.822Z,98.68
2022-11-21T10:56:14.670Z,99.50
2022-11-21T10:58:46.417Z,99.97
2022-11-21T11:01:30.844Z,99.26
2022-11-21T11:07:13.780Z,99.19
2022-11-21T11:09:46.942Z,99.16
2022-11-21T11:12:50.749Z,99.17
2022-11-21T11:15:28.124Z,98.84
2022-11-21T11:18:08.773Z,96.13
2022-11-21T11:20:45.615Z,97.62
2022-11-21T11:23:25.588Z,98.38
2022-11-21T11:25:58.416Z,99.25
2022-11-21T11:28:34.197Z,98.94
2022-11-21T11:31:02.231Z,99.10
2022-11-21T11:33:36.674Z,98.61
2022-11-21T11:36:15.618Z,96.77
2022-11-21T11:38:58.389Z,96.08
2022-11-21T11:42:06.687Z,96.28
2022-11-21T11:45:33.538Z,95.62
2022-11-21T11:48:10.572Z,95.12
2022-11-21T11:50:50.570Z,94.88
2022-11-21T11:53:26.785Z,95.97
2022-11-21T11:56:01.117Z,95.91
2022-11-21T11:58:43.879Z,96.69
2022-11-21T12:01:29.871Z,96.58
2022-11-21T12:04:30.341Z,97.90
2022-11-21T12:10:20.973Z,98.01
2022-11-21T12:13:03.266Z,98.34
2022-11-21T12:15:52.801Z,97.42
2022-11-21T12:18:24.328Z,97.47
2022-11-21T12:21:10.318Z,96.42
2022-11-21T12:23:48.600Z,95.92
2022-11-21T12:26:40.291Z,96.60
2022-11-21T12:29:35.189Z,98.04
2022-11-21T12:33:00.213Z,98.14
2022-11-21T12:35:37.169Z,99.34
2022-11-21T12:38:44.756Z,98.80
2022-11-21T12:41:54.418Z,99.59
2022-11-21T12:44:49.565Z,100.00
2022-11-21T12:48:29.691Z,100.00
2022-11-21T12:51:55.540Z,100.00
2022-11-21T12:54:52.757Z,100.00
2022-11-21T12:57:26.806Z,100.00
2022-11-21T13:00:15.456Z,100.00
2022-11-21T13:03:15.949Z,100.00
2022-11-21T13:05:49.895Z,100.00
2022-11-21T13:08:29.920Z,100.00
2022-11-21T13:11:48.923Z,100.00
2022-11-21T13:14:27.297Z,100.00
2022-11-21T13:17:19.052Z,100.00
2022-11-21T13:20:06.072Z,99.06
2022-11-21T13:22:36.268Z,97.89
2022-11-21T13:25:29.388Z,98.70
2022-11-21T13:28:19.656Z,97.96
2022-11-21T13:30:52.021Z,96.63
2022-11-21T13:33:37.529Z,97.79
2022-11-21T13:36:12.384Z,97.99
2022-11-21T13:38:52.974Z,98.01
2022-11-21T13:41:54.722Z,98.10
2022-11-21T13:44:31.486Z,97.56
2022-11-21T13:47:27.473Z,98.21
2022-11-21T13:50:19.892Z,97.33
2022-11-21T13:53:22.549Z,98.32
2022-11-21T13:56:28.023Z,98.36
2022-11-21T13:59:21.577Z,98.75
2022-11-21T14:02:03.598Z,98.65
2022-11-21T14:04:54.656Z,98.23
2022-11-21T14:07:33.084Z,98.24
2022-11-21T14:10:24.090Z,99.04
2022-11-21T14:12:55.179Z,98.96
2022-11-21T14:15:36.588Z,98.13
2022-11-21T14:18:04.654Z,98.04
2022-11-21T14:20:49.560Z,98.83
2022-11-21T14:23:21.373Z,98.85
2022-11-21T14:26:00.215Z,98.51
2022-11-21T14:28:31.041Z,98.79
2022-11-21T14:31:04.583Z,100.00
2022-11-21T14:33:35.198Z,100.00
2022-11-21T14:36:27.243Z,100.00
2022-11-21T14:39:34.576Z,100.00
2022-11-21T14:42:01.011Z,100.00
2022-11-21T14:44:31.944Z,100.00
2022-11-21T14:47:26.744Z,100.00
2022-11-21T14:49:59.804Z,100.00
2022-11-21T14:52:33.135Z,100.00
2022-11-21T14:57:53.782Z,100.00
2022-11-21T15:00:57.460Z,100.00
2022-11-21T15:03:23.120Z,100.00
2022-11-21T15:06:05.787Z,100.00
2022-11-21T15:09:52.723Z,100.00
2022-11-21T15:11:44.206Z,100.00
2022-11-21T15:14:58.441Z,100.00
2022-11-21T15:17:26.951Z,100.00
2022-11-21T15:20:12.795Z,100.00
2022-11-21T15:22:42.519Z,100.00
2022-11-21T15:25:24.034Z,100.00
2022-11-21T15:27:53.215Z,100.00
2022-11-21T15:30:39.321Z,100.00
2022-11-21T15:33:21.447Z,100.00
2022-11-21T15:35:56.052Z,100.00
2022-11-21T15:39:03.750Z,100.00
2022-11-21T15:41:35.108Z,100.00
2022-11-21T15:44:02.562Z,100.00
2022-11-21T15:46:41.877Z,100.00
2022-11-21T15:52:09.793Z,100.00
2022-11-21T15:54:48.447Z,100.00
2022-11-21T15:57:10.924Z,100.00
2022-11-21T15:59:46.292Z,100.00
2022-11-21T16:02:15.032Z,100.00
2022-11-21T16:04:42.726Z,100.00
2022-11-21T16:07:10.762Z,100.00
2022-11-21T16:09:39.073Z,100.00
2022-11-21T16:12:07.017Z,100.00
2022-11-21T16:14:34.577Z,100.00
2022-11-21T16:17:02.459Z,100.00
2022-11-21T16:19:30.350Z,100.00
2022-11-21T16:21:58.983Z,100.00
2022-11-21T16:24:27.192Z,100.00
2022-11-21T16:26:57.432Z,100.00
2022-11-21T16:29:24.999Z,100.00
2022-11-21T16:31:55.863Z,100.00
2022-11-21T16:34:23.430Z,100.00
2022-11-21T16:36:51.656Z,100.00
2022-11-21T16:39:19.178Z,100.00
2022-11-21T16:41:49.136Z,100.00
2022-11-21T16:44:16.916Z,100.00
2022-11-21T16:46:48.172Z,100.00
2022-11-21T16:49:16.068Z,100.00
2022-11-21T16:51:44.237Z,100.00
2022-11-21T16:54:11.864Z,100.00
2022-11-21T16:56:39.810Z,100.00
2022-11-21T16:59:07.307Z,100.00
2022-11-21T17:01:36.343Z,100.00
2022-11-21T17:04:04.794Z,100.00
2022-11-21T17:06:32.966Z,100.00
2022-11-21T17:09:02.064Z,100.00
2022-11-21T17:11:32.385Z,100.00
2022-11-21T17:14:04.637Z,100.00
2022-11-21T17:16:34.520Z,100.00
2022-11-21T17:19:03.385Z,100.00
2022-11-21T17:21:32.358Z,100.00
2022-11-21T17:24:00.697Z,100.00
2022-11-21T17:26:30.356Z,100.00
2022-11-21T17:29:01.152Z,100.00
2022-11-21T17:31:29.288Z,100.00
2022-11-21T17:33:58.084Z,100.00
2022-11-21T17:36:28.211Z,100.00
2022-11-21T17:38:56.730Z,100.00
2022-11-21T17:41:26.260Z,100.00
2022-11-21T17:43:56.260Z,100.00
2022-11-21T17:46:25.789Z,100.00
2022-11-21T17:48:57.666Z,100.00
2022-11-21T17:51:33.552Z,100.00
2022-11-21T17:54:02.038Z,100.00
2022-11-21T17:56:33.352Z,100.00
2022-11-21T17:59:01.810Z,100.00
2022-11-21T18:01:31.937Z,100.00
2022-11-21T18:04:13.339Z,100.00
2022-11-21T18:06:44.874Z,100.00
2022-11-21T18:09:13.871Z,100.00
2022-11-21T18:11:41.951Z,100.00
2022-11-21T18:14:14.101Z,100.00
2022-11-21T18:16:51.076Z,100.00
2022-11-21T18:19:21.321Z,100.00
2022-11-21T18:21:49.095Z,100.00
2022-11-21T18:24:16.494Z,100.00
2022-11-21T18:26:44.197Z,100.00
2022-11-21T18:31:59.437Z,100.00
2022-11-21T18:34:26.794Z,100.00
2022-11-21T18:36:54.677Z,100.00
2022-11-21T18:39:24.983Z,100.00
2022-11-21T18:41:54.862Z,100.00
2022-11-21T18:44:22.969Z,100.00
2022-11-21T18:46:51.451Z,100.00
2022-11-21T18:49:18.865Z,100.00
2022-11-21T18:51:48.102Z,100.00
2022-11-21T18:54:17.119Z,100.00
2022-11-21T18:57:04.687Z,100.00
2022-11-21T18:59:33.196Z,100.00
2022-11-21T19:02:02.364Z,100.00
2022-11-21T19:04:29.839Z,100.00
2022-11-21T19:06:57.539Z,100.00
2022-11-21T19:09:29.416Z,100.00
2022-11-21T19:11:59.966Z,100.00
2022-11-21T19:14:27.584Z,100.00
2022-11-21T19:16:55.617Z,100.00
2022-11-21T19:19:34.165Z,100.00
2022-11-21T19:22:04.721Z,100.00
2022-11-21T19:24:32.213Z,100.00
2022-11-21T19:26:59.967Z,100.00
2022-11-21T19:29:27.550Z,100.00
2022-11-21T19:31:55.990Z,100.00
2022-11-21T19:34:23.386Z,100.00
2022-11-21T19:36:51.519Z,100.00
2022-11-21T19:39:18.912Z,100.00
2022-11-21T19:41:49.152Z,100.00
2022-11-21T19:44:16.671Z,100.00
2022-11-21T19:46:44.384Z,100.00
2022-11-21T19:49:12.289Z,100.00
2022-11-21T19:51:41.886Z,100.00
2022-11-21T19:54:11.461Z,100.00
2022-11-21T19:56:40.404Z,100.00
2022-11-21T19:59:10.354Z,100.00
2022-11-21T20:01:38.296Z,100.00
2022-11-21T20:04:06.657Z,100.00
2022-11-21T20:06:41.590Z,100.00
2022-11-21T20:09:11.582Z,100.00
2022-11-21T20:11:40.744Z,100.00
2022-11-21T20:14:08.331Z,100.00
2022-11-21T20:16:38.665Z,100.00
2022-11-21T20:19:17.505Z,100.00
2022-11-21T20:21:45.992Z,100.00
2022-11-21T20:24:14.020Z,100.00
2022-11-21T20:26:42.082Z,100.00
2022-11-21T20:29:12.201Z,100.00
2022-11-21T20:31:40.208Z,100.00
2022-11-21T20:34:12.563Z,100.00
2022-11-21T20:36:41.220Z,100.00
2022-11-21T20:39:13.735Z,100.00
2022-11-21T20:41:41.766Z,100.00
2022-11-21T20:45:07.199Z,100.00
2022-11-21T20:47:04.753Z,100.00
2022-11-21T20:49:33.128Z,100.00
2022-11-21T20:54:48.510Z,100.00
2022-11-21T20:57:18.713Z,100.00
2022-11-21T20:59:46.250Z,100.00
2022-11-21T21:02:15.004Z,99.49
2022-11-21T21:04:42.638Z,98.36
2022-11-21T21:07:10.534Z,97.18
2022-11-21T21:09:38.036Z,96.77
2022-11-21T21:12:05.915Z,95.95
2022-11-21T21:14:33.336Z,96.33
2022-11-21T21:17:01.136Z,96.58
2022-11-21T21:19:29.048Z,96.85
2022-11-21T21:21:57.249Z,96.86
2022-11-21T21:24:26.485Z,97.27
2022-11-21T21:26:55.344Z,97.94
2022-11-21T21:29:22.830Z,97.84
2022-11-21T21:32:10.193Z,98.22
2022-11-21T21:34:37.947Z,98.46
2022-11-21T21:37:05.799Z,98.88
2022-11-21T21:39:33.377Z,98.25
2022-11-21T21:42:01.550Z,98.22
2022-11-21T21:44:33.502Z,98.18
2022-11-21T21:47:02.043Z,98.31
2022-11-21T21:49:30.390Z,98.96
2022-11-21T21:51:58.368Z,98.74
2022-11-21T21:54:27.184Z,98.86
2022-11-21T21:56:55.832Z,98.54
2022-11-21T21:59:23.355Z,99.25
2022-11-21T22:01:51.832Z,99.15
2022-11-21T22:04:19.413Z,99.53
2022-11-21T22:06:47.312Z,99.95
2022-11-21T22:09:14.756Z,99.63
2022-11-21T22:11:42.789Z,100.00
2022-11-21T22:14:15.356Z,100.00
2022-11-21T22:16:43.561Z,100.00
2022-11-21T22:19:11.391Z,99.51
2022-11-21T22:21:39.222Z,99.78
2022-11-21T22:24:25.463Z,99.42
2022-11-21T22:26:53.993Z,99.33
2022-11-21T22:29:22.595Z,99.48
2022-11-21T22:31:51.086Z,99.34
2022-11-21T22:34:18.901Z,98.55
2022-11-21T22:36:46.986Z,99.14
2022-11-21T22:39:15.805Z,98.49
2022-11-21T22:41:46.378Z,98.11
2022-11-21T22:44:15.972Z,98.35
2022-11-21T22:46:43.422Z,98.17
2022-11-21T22:49:11.201Z,97.84
2022-11-21T22:51:38.631Z,97.73
2022-11-21T22:54:06.603Z,97.69
2022-11-21T22:56:34.123Z,97.62
2022-11-21T22:59:01.858Z,97.11
2022-11-21T23:01:29.387Z,96.55
2022-11-21T23:03:57.272Z,97.43
2022-11-21T23:06:26.556Z,96.87
2022-11-21T23:08:57.433Z,96.66
2022-11-21T23:11:36.243Z,97.08
2022-11-21T23:14:07.918Z,97.43
2022-11-21T23:16:35.498Z,96.87
2022-11-21T23:19:03.299Z,97.05
2022-11-21T23:21:30.757Z,97.13
2022-11-21T23:23:58.426Z,96.83
2022-11-21T23:26:25.852Z,96.98
2022-11-21T23:28:55.852Z,96.54
2022-11-21T23:31:23.399Z,96.72
2022-11-21T23:33:51.181Z,96.40
2022-11-21T23:36:18.556Z,95.96
2022-11-21T23:38:46.290Z,96.17
2022-11-21T23:41:13.797Z,95.45
2022-11-21T23:43:41.472Z,95.82
2022-11-21T23:46:09.037Z,95.79
2022-11-21T23:48:36.700Z,95.50
2022-11-21T23:51:04.286Z,94.83
2022-11-21T23:53:31.992Z,95.12
2022-11-21T23:55:59.680Z,95.21
2022-11-21T23:58:27.905Z,94.97
